Smiths Falls, Idaho
Current Conditions -  °F | °C
As of 6:55 PM on Sunday 23 Nov 2014 (Local Time) from K65S Reporting Station
Overcast Overcast  
Wind Chill: 30°   Ceiling: 6000
Heat Index: 36°   Visibility: 10mi
Dew Point: 32°   Wind: 7mph
Humidity: 87%   Direction: 200°SSW
Pressure: 29.95"   Gusts: NA
Location:  48.95°N, 116.63°W
Report Text: K65S 240255Z AUTO 20006KT 10SM BKN060 OVC075 02/00 A2995 RMK AO2
Loading
Personal Weather Stations






























Interactive Weather Map New forecast layout! Learn more

10-Day Weather Forecast

Advertisements
Track Severe Weather on mobile